Time;durP1;ratioP1;P1;durP2;ratioP2;P2;SDS_P1;SDS_P2;PMS_P1;PMS_P2;Temp;Humidity;BMP_temperature;BMP_pressure;BME280_temperature;BME280_humidity;BME280_pressure;Samples;Min_cycle;Max_cycle;Signal;HPM_P1;HPM_P2
2022/06/17 00:00:48;;;;;;;4.85;2.50;;;17.50;99.90;;;;;;5074874;28;20224;-59
2022/06/17 00:03:15;;;;;;;3.08;2.40;;;17.50;99.90;;;;;;5073907;28;20215;-60
2022/06/17 00:05:42;;;;;;;3.20;2.40;;;17.50;99.90;;;;;;5074422;28;20212;-59
2022/06/17 00:08:15;;;;;;;2.60;2.35;;;17.50;99.90;;;;;;5074694;28;20207;-59
2022/06/17 00:10:42;;;;;;;5.82;2.47;;;17.50;99.90;;;;;;5074353;28;20261;-61
2022/06/17 00:13:12;;;;;;;2.70;2.20;;;17.50;99.90;;;;;;5074736;28;20409;-61
2022/06/17 00:15:39;;;;;;;3.85;2.33;;;17.40;99.90;;;;;;5074507;28;20212;-59
2022/06/17 00:18:07;;;;;;;4.20;3.00;;;17.40;99.90;;;;;;5074286;28;20225;-59
2022/06/17 00:20:34;;;;;;;3.47;2.22;;;17.40;99.90;;;;;;5074571;28;20231;-60
2022/06/17 00:23:01;;;;;;;6.93;2.30;;;17.40;99.90;;;;;;5074372;28;20205;-60
2022/06/17 00:25:31;;;;;;;3.17;2.20;;;17.40;99.90;;;;;;5074111;28;20664;-61
2022/06/17 00:27:58;;;;;;;4.53;2.83;;;17.30;99.90;;;;;;5074162;28;20582;-60
2022/06/17 00:30:28;;;;;;;2.45;2.25;;;17.30;99.90;;;;;;5074174;28;20421;-59
2022/06/17 00:32:56;;;;;;;4.78;2.13;;;17.30;99.90;;;;;;5074018;28;20586;-59
2022/06/17 00:35:28;;;;;;;3.40;2.35;;;17.20;99.90;;;;;;5073826;28;20680;-59
2022/06/17 00:37:55;;;;;;;3.67;2.10;;;17.20;99.90;;;;;;5074216;28;20657;-59
2022/06/17 00:40:26;;;;;;;4.77;2.40;;;17.10;99.90;;;;;;5073754;28;20738;-60
2022/06/17 00:42:53;;;;;;;3.40;2.35;;;17.00;99.90;;;;;;5074097;28;20227;-60
2022/06/17 00:45:26;;;;;;;3.00;2.30;;;17.00;99.90;;;;;;5073647;28;20201;-60
2022/06/17 00:47:58;;;;;;;3.50;1.90;;;16.90;99.90;;;;;;5074018;28;20201;-60
2022/06/17 00:50:33;;;;;;;2.58;2.30;;;16.90;99.90;;;;;;5073740;28;20720;-60
2022/06/17 00:53:07;;;;;;;3.38;2.28;;;16.80;99.90;;;;;;5073798;28;20208;-59
2022/06/17 00:55:37;;;;;;;4.22;2.35;;;16.80;99.90;;;;;;5073376;28;20209;-59
2022/06/17 00:58:13;;;;;;;3.70;2.25;;;16.70;99.90;;;;;;5073742;28;20256;-59
2022/06/17 01:00:39;;;;;;;2.30;2.10;;;16.70;99.90;;;;;;5073370;28;20737;-59
2022/06/17 01:03:10;;;;;;;2.23;2.03;;;16.70;99.90;;;;;;5073409;28;20201;-59
2022/06/17 01:05:42;;;;;;;2.55;2.15;;;16.60;99.90;;;;;;5073363;28;20215;-59
2022/06/17 01:08:14;;;;;;;3.20;2.37;;;16.50;99.90;;;;;;5073215;28;20212;-60
2022/06/17 01:10:41;;;;;;;2.33;2.03;;;16.50;99.90;;;;;;5073318;28;20232;-60
2022/06/17 01:13:11;;;;;;;2.97;2.30;;;16.50;99.90;;;;;;5073179;28;20200;-59
2022/06/17 01:15:40;;;;;;;2.73;2.07;;;16.40;99.90;;;;;;5072835;28;20209;-59
2022/06/17 01:18:07;;;;;;;3.60;2.50;;;16.40;99.90;;;;;;5073266;28;20610;-60
2022/06/17 01:20:36;;;;;;;3.08;2.45;;;16.30;99.90;;;;;;5073169;28;20229;-59
2022/06/17 01:23:08;;;;;;;4.30;2.07;;;16.20;99.90;;;;;;5073571;28;20205;-60
2022/06/17 01:25:38;;;;;;;2.70;2.30;;;16.20;99.90;;;;;;5072897;28;20212;-60
2022/06/17 01:28:08;;;;;;;4.07;2.55;;;16.20;99.90;;;;;;5073239;28;20201;-59
2022/06/17 01:30:38;;;;;;;3.00;2.33;;;16.10;99.90;;;;;;5073019;28;20232;-59
2022/06/17 01:33:13;;;;;;;7.63;2.50;;;16.00;99.90;;;;;;5072769;28;20213;-60
2022/06/17 01:35:46;;;;;;;5.13;2.47;;;16.00;99.90;;;;;;5072824;28;20671;-60
2022/06/17 01:38:15;;;;;;;3.23;2.20;;;15.90;99.90;;;;;;5073299;28;20259;-59
2022/06/17 01:40:43;;;;;;;4.33;2.20;;;15.80;99.90;;;;;;5072961;28;20221;-59
2022/06/17 01:43:15;;;;;;;2.90;2.47;;;15.90;99.90;;;;;;5072899;28;20205;-60
2022/06/17 01:45:46;;;;;;;3.30;2.47;;;15.80;99.90;;;;;;5072578;28;20676;-60
2022/06/17 01:48:15;;;;;;;3.77;2.30;;;15.80;99.90;;;;;;5072859;28;20392;-60
2022/06/17 01:50:44;;;;;;;3.25;2.30;;;15.80;99.90;;;;;;5072627;28;20243;-60
2022/06/17 01:53:15;;;;;;;3.03;2.37;;;15.80;99.90;;;;;;5073059;28;20230;-60
2022/06/17 01:55:45;;;;;;;4.53;2.20;;;15.70;99.90;;;;;;5073210;28;20227;-59
2022/06/17 01:58:18;;;;;;;7.40;2.70;;;15.80;99.90;;;;;;5073011;28;20220;-59
2022/06/17 02:00:45;;;;;;;2.90;2.23;;;15.70;99.90;;;;;;5073400;28;20331;-60
2022/06/17 02:03:16;;;;;;;4.73;2.40;;;15.60;99.90;;;;;;5073005;28;20205;-60
2022/06/17 02:05:48;;;;;;;4.23;2.50;;;15.60;99.90;;;;;;5073120;28;20567;-59
2022/06/17 02:08:17;;;;;;;3.67;2.30;;;15.70;99.90;;;;;;5072435;28;20201;-60
2022/06/17 02:10:46;;;;;;;7.40;4.50;;;15.70;99.90;;;;;;5072238;28;20236;-60
2022/06/17 02:13:15;;;;;;;6.03;4.03;;;15.70;99.90;;;;;;5072663;28;20630;-60
2022/06/17 02:15:42;;;;;;;7.07;4.53;;;15.80;99.90;;;;;;5072001;28;20209;-59
2022/06/17 02:18:15;;;;;;;3.87;3.23;;;15.90;99.90;;;;;;5072174;28;20225;-60
2022/06/17 02:20:42;;;;;;;2.73;2.07;;;16.00;99.90;;;;;;5072186;28;20851;-60
2022/06/17 02:23:10;;;;;;;4.07;2.60;;;16.00;99.90;;;;;;5072063;28;20208;-60
2022/06/17 02:25:43;;;;;;;3.40;2.77;;;16.00;99.90;;;;;;5071710;28;20212;-59
2022/06/17 02:28:10;;;;;;;5.87;2.50;;;15.90;99.90;;;;;;5072555;28;20208;-60
2022/06/17 02:30:40;;;;;;;5.63;2.90;;;15.90;99.90;;;;;;5072372;28;20274;-60
2022/06/17 02:33:09;;;;;;;3.10;2.43;;;15.80;99.90;;;;;;5072327;28;20208;-60
2022/06/17 02:35:43;;;;;;;4.47;2.27;;;15.70;99.90;;;;;;5071886;28;20208;-60
2022/06/17 02:38:15;;;;;;;2.97;2.50;;;15.70;99.90;;;;;;5072598;28;20231;-60
2022/06/17 02:40:48;;;;;;;3.07;2.40;;;15.60;99.90;;;;;;5072541;28;20648;-59
2022/06/17 02:43:19;;;;;;;4.50;2.37;;;15.50;99.90;;;;;;5072309;28;20205;-59
2022/06/17 02:45:51;;;;;;;2.93;2.63;;;15.40;99.90;;;;;;5071930;28;20680;-59
2022/06/17 02:48:23;;;;;;;4.10;2.27;;;15.40;99.90;;;;;;5071949;28;20201;-59
2022/06/17 02:50:52;;;;;;;2.30;2.10;;;15.30;99.90;;;;;;5072077;28;20225;-60
2022/06/17 02:53:27;;;;;;;4.97;2.83;;;15.30;99.90;;;;;;5071980;28;20213;-59
2022/06/17 02:55:56;;;;;;;3.87;2.30;;;15.30;99.90;;;;;;5072538;28;20204;-61
2022/06/17 02:58:32;;;;;;;2.87;2.23;;;15.20;99.90;;;;;;5072287;28;20255;-59
2022/06/17 03:01:00;;;;;;;3.00;2.13;;;15.10;99.90;;;;;;5072413;28;20714;-60
2022/06/17 03:03:28;;;;;;;6.47;2.17;;;15.00;99.90;;;;;;5072454;28;20205;-60
2022/06/17 03:05:55;;;;;;;3.60;2.60;;;15.00;99.90;;;;;;5072133;28;20205;-59
2022/06/17 03:08:23;;;;;;;3.90;2.50;;;14.90;99.90;;;;;;5072169;28;20207;-60
2022/06/17 03:10:53;;;;;;;4.27;2.20;;;14.80;99.90;;;;;;5071701;28;20248;-60
2022/06/17 03:13:26;;;;;;;4.93;2.30;;;14.80;99.90;;;;;;5071833;28;20201;-60
2022/06/17 03:15:56;;;;;;;3.90;2.20;;;14.80;99.90;;;;;;5072046;28;20213;-59
2022/06/17 03:18:25;;;;;;;2.90;2.23;;;14.80;99.90;;;;;;5072098;28;20709;-60
2022/06/17 03:20:52;;;;;;;4.90;2.43;;;14.80;99.90;;;;;;5072044;28;20278;-60
2022/06/17 03:23:23;;;;;;;4.60;2.50;;;14.70;99.90;;;;;;5072140;28;20209;-61
2022/06/17 03:25:56;;;;;;;2.50;2.30;;;14.80;99.90;;;;;;5071919;28;20201;-60
2022/06/17 03:28:31;;;;;;;2.60;2.40;;;14.80;99.90;;;;;;5072008;28;20212;-60
2022/06/17 03:31:04;;;;;;;3.67;2.47;;;14.60;99.90;;;;;;5072211;28;20311;-60
2022/06/17 03:33:35;;;;;;;5.50;2.73;;;14.60;99.90;;;;;;5071874;28;20228;-60
2022/06/17 03:36:09;;;;;;;2.47;2.07;;;14.60;99.90;;;;;;5071413;28;20217;-60
2022/06/17 03:38:41;;;;;;;4.27;2.57;;;14.70;99.90;;;;;;5075412;28;20232;-60
2022/06/17 03:41:13;;;;;;;3.20;2.33;;;14.70;99.90;;;;;;5075318;28;20221;-60
2022/06/17 03:43:46;;;;;;;3.53;2.73;;;14.90;99.90;;;;;;5075331;28;20205;-60
2022/06/17 03:46:14;;;;;;;4.20;2.60;;;14.80;99.90;;;;;;5074855;28;20698;-60
2022/06/17 03:48:45;;;;;;;4.37;2.60;;;14.80;99.90;;;;;;5075073;28;20204;-60
2022/06/17 03:51:17;;;;;;;3.70;2.40;;;14.80;99.90;;;;;;5075099;28;20739;-60
2022/06/17 03:53:45;;;;;;;3.07;2.27;;;15.00;99.90;;;;;;5075303;28;20192;-60
2022/06/17 03:56:16;;;;;;;3.40;2.80;;;15.00;99.90;;;;;;5075005;28;20207;-60
2022/06/17 03:58:45;;;;;;;2.67;2.40;;;15.10;99.90;;;;;;5075336;28;20334;-60
2022/06/17 04:01:16;;;;;;;3.67;2.70;;;15.20;99.90;;;;;;5075438;28;20239;-60
2022/06/17 04:03:50;;;;;;;4.93;2.60;;;15.30;99.90;;;;;;5075125;28;20648;-61
2022/06/17 04:06:19;;;;;;;2.90;2.30;;;15.40;99.90;;;;;;5074955;28;20204;-60
2022/06/17 04:08:56;;;;;;;3.70;2.40;;;15.40;99.90;;;;;;5075185;28;20199;-60
2022/06/17 04:11:28;;;;;;;2.70;2.30;;;15.40;99.90;;;;;;5074869;28;20323;-61
2022/06/17 04:13:59;;;;;;;4.27;2.57;;;15.50;99.90;;;;;;5075021;28;20209;-60
2022/06/17 04:16:34;;;;;;;3.53;2.40;;;15.50;99.90;;;;;;5074904;28;20288;-59
2022/06/17 04:19:12;;;;;;;2.93;2.47;;;15.50;99.90;;;;;;5074666;28;20703;-60
2022/06/17 04:21:39;;;;;;;2.80;2.23;;;15.50;99.90;;;;;;5074553;28;20401;-60
2022/06/17 04:24:10;;;;;;;4.23;2.50;;;15.60;99.90;;;;;;5074583;28;20211;-60
2022/06/17 04:26:38;;;;;;;5.23;2.43;;;15.70;99.90;;;;;;5074484;28;20212;-60
2022/06/17 04:29:12;;;;;;;2.43;2.10;;;15.70;99.90;;;;;;5074648;28;20201;-60
2022/06/17 04:31:38;;;;;;;2.30;2.10;;;15.80;99.90;;;;;;5074544;28;20239;-61
2022/06/17 04:34:08;;;;;;;4.47;2.60;;;15.90;99.90;;;;;;5074448;28;20209;-61
2022/06/17 04:36:40;;;;;;;4.17;2.70;;;16.00;99.90;;;;;;5074217;28;20205;-61
2022/06/17 04:39:20;;;;;;;3.07;2.17;;;16.10;99.90;;;;;;5074632;28;20315;-61
2022/06/17 04:41:50;;;;;;;3.23;2.27;;;16.40;99.90;;;;;;5074428;28;20260;-61
2022/06/17 04:44:18;;;;;;;4.40;2.50;;;16.70;99.90;;;;;;5074116;28;20205;-61
2022/06/17 04:46:49;;;;;;;3.60;2.10;;;17.20;99.90;;;;;;5074054;28;20572;-61
2022/06/17 04:49:21;;;;;;;3.50;2.40;;;18.10;99.90;;;;;;5073427;28;20243;-60
2022/06/17 04:51:48;;;;;;;4.68;2.30;;;19.30;99.90;;;;;;5073918;28;20704;-60
2022/06/17 04:54:16;;;;;;;3.03;2.10;;;20.30;99.90;;;;;;5073922;28;20235;-60
2022/06/17 04:56:46;;;;;;;4.00;2.30;;;21.20;99.90;;;;;;5073485;28;20208;-60
2022/06/17 04:59:26;;;;;;;3.20;2.05;;;22.10;99.90;;;;;;5073511;28;20227;-60
2022/06/17 05:01:54;;;;;;;2.63;2.03;;;22.90;99.40;;;;;;5073814;28;20248;-60
2022/06/17 05:04:21;;;;;;;2.40;2.00;;;23.60;97.40;;;;;;5073796;28;20221;-61
2022/06/17 05:06:48;;;;;;;3.72;1.75;;;24.40;94.90;;;;;;5073244;28;20239;-60
2022/06/17 05:09:23;;;;;;;2.97;1.88;;;25.30;91.80;;;;;;5073685;28;20291;-59
2022/06/17 05:11:52;;;;;;;3.92;2.00;;;25.80;90.20;;;;;;5073709;28;20563;-59
2022/06/17 05:14:27;;;;;;;2.63;1.80;;;26.30;87.00;;;;;;5073336;28;20209;-59
2022/06/17 05:16:55;;;;;;;3.88;1.90;;;27.00;83.40;;;;;;5073296;28;20255;-59
2022/06/17 05:19:23;;;;;;;3.25;1.90;;;27.80;78.90;;;;;;5073159;28;20232;-59
2022/06/17 05:21:50;;;;;;;3.33;2.10;;;28.40;74.70;;;;;;5073377;28;20274;-59
2022/06/17 05:24:17;;;;;;;3.15;1.85;;;29.20;71.90;;;;;;5073526;28;20211;-59
2022/06/17 05:26:44;;;;;;;2.33;1.73;;;29.60;68.40;;;;;;5073101;28;20209;-59
2022/06/17 05:29:10;;;;;;;4.60;1.80;;;30.00;66.50;;;;;;5073713;28;20819;-59
2022/06/17 05:31:39;;;;;;;3.75;1.63;;;30.80;63.10;;;;;;5073889;28;20224;-61
2022/06/17 05:34:06;;;;;;;2.42;1.80;;;31.70;60.00;;;;;;5073394;28;20205;-59
2022/06/17 05:36:34;;;;;;;3.03;1.60;;;32.10;58.00;;;;;;5072970;28;20239;-60
2022/06/17 05:39:00;;;;;;;2.92;1.58;;;32.10;56.90;;;;;;5073089;28;20298;-60
2022/06/17 05:41:27;;;;;;;2.67;1.80;;;31.90;56.40;;;;;;5073426;28;20265;-60
2022/06/17 05:43:54;;;;;;;3.13;1.95;;;31.90;56.40;;;;;;5073637;28;20204;-59
2022/06/17 05:46:21;;;;;;;2.92;1.70;;;32.10;56.70;;;;;;5073218;28;20296;-60
2022/06/17 05:48:49;;;;;;;2.92;1.50;;;32.60;55.40;;;;;;5073162;28;20205;-60
2022/06/17 05:51:16;;;;;;;3.70;1.70;;;33.30;52.60;;;;;;5073417;28;20224;-60
2022/06/17 05:53:43;;;;;;;2.13;1.50;;;33.20;51.40;;;;;;5073824;28;20287;-60
2022/06/17 05:56:10;;;;;;;3.38;1.73;;;32.20;53.70;;;;;;5072777;28;20557;-60
2022/06/17 05:58:37;;;;;;;1.75;1.50;;;31.50;55.30;;;;;;5073483;28;20221;-60
2022/06/17 06:01:04;;;;;;;2.30;2.00;;;32.30;54.40;;;;;;5072857;28;20224;-60
2022/06/17 06:03:30;;;;;;;3.58;1.90;;;33.20;53.20;;;;;;5074271;28;20208;-60
2022/06/17 06:05:58;;;;;;;3.83;1.77;;;32.50;54.40;;;;;;5072803;28;20212;-60
2022/06/17 06:08:25;;;;;;;2.25;1.80;;;31.50;56.50;;;;;;5072810;28;20200;-60
2022/06/17 06:10:52;;;;;;;3.63;1.92;;;31.90;56.10;;;;;;5073149;28;20239;-60
2022/06/17 06:13:22;;;;;;;3.45;1.70;;;32.40;54.50;;;;;;5074468;28;20205;-60
2022/06/17 06:15:50;;;;;;;3.67;1.73;;;31.80;55.20;;;;;;5074760;28;20208;-60
2022/06/17 06:18:20;;;;;;;2.53;1.60;;;32.30;54.30;;;;;;5073928;28;20208;-60
2022/06/17 06:20:47;;;;;;;2.70;1.60;;;33.40;52.00;;;;;;5073678;28;20224;-61
2022/06/17 06:23:16;;;;;;;6.68;1.73;;;34.50;48.90;;;;;;5074195;28;20201;-60
2022/06/17 06:25:42;;;;;;;4.72;1.50;;;35.20;48.80;;;;;;5073596;28;20213;-61
2022/06/17 06:28:10;;;;;;;5.50;1.90;;;36.20;46.70;;;;;;5073682;28;20665;-60
2022/06/17 06:30:38;;;;;;;1.70;1.20;;;37.10;45.30;;;;;;5074301;28;20638;-60
2022/06/17 06:33:04;;;;;;;3.25;1.52;;;37.80;43.10;;;;;;5072820;28;20205;-60
2022/06/17 06:35:33;;;;;;;3.78;1.50;;;38.40;41.90;;;;;;5072175;28;20215;-60
2022/06/17 06:38:00;;;;;;;2.28;1.38;;;37.70;41.50;;;;;;5072493;28;20236;-60
2022/06/17 06:40:29;;;;;;;3.28;1.23;;;37.70;41.60;;;;;;5071832;28;20236;-60
2022/06/17 06:42:56;;;;;;;4.70;1.50;;;37.40;42.20;;;;;;5072272;28;20201;-60
2022/06/17 06:45:25;;;;;;;2.10;1.40;;;37.00;42.40;;;;;;5071962;28;20209;-61
2022/06/17 06:47:53;;;;;;;2.90;1.60;;;37.80;41.30;;;;;;5071834;28;20209;-60
2022/06/17 06:50:22;;;;;;;5.78;1.52;;;38.40;40.70;;;;;;5072103;28;20234;-60
2022/06/17 06:52:49;;;;;;;3.15;1.90;;;38.00;41.40;;;;;;5072369;28;20209;-65
2022/06/17 06:55:17;;;;;;;4.47;1.80;;;38.70;40.60;;;;;;5071949;28;20204;-61
2022/06/17 06:57:51;;;;;;;6.10;2.35;;;39.10;39.20;;;;;;5072770;28;20215;-61
2022/06/17 07:00:22;;;;;;;5.15;3.85;;;38.90;39.70;;;;;;5073154;28;20234;-64
2022/06/17 07:02:49;;;;;;;4.03;2.53;;;38.40;40.40;;;;;;5073954;28;20213;-62
2022/06/17 07:05:16;;;;;;;5.28;2.55;;;38.80;40.20;;;;;;5073070;28;20215;-61
2022/06/17 07:07:43;;;;;;;4.45;2.28;;;38.90;39.80;;;;;;5069975;28;20467;-61
2022/06/17 07:10:14;;;;;;;4.85;2.30;;;37.50;41.60;;;;;;5071446;28;20200;-60
2022/06/17 07:12:40;;;;;;;4.57;2.10;;;37.40;42.20;;;;;;5074771;28;20235;-61
2022/06/17 07:15:10;;;;;;;7.75;4.18;;;38.10;41.00;;;;;;5075962;28;20231;-60
2022/06/17 07:17:37;;;;;;;5.05;3.40;;;39.00;40.80;;;;;;5075210;28;20204;-60
2022/06/17 07:20:05;;;;;;;5.88;1.80;;;40.10;39.10;;;;;;5075616;28;20228;-60
2022/06/17 07:22:31;;;;;;;5.95;2.60;;;40.70;38.10;;;;;;5075485;28;20204;-60
2022/06/17 07:24:58;;;;;;;4.40;2.05;;;40.50;38.30;;;;;;5075905;28;20672;-60
2022/06/17 07:27:25;;;;;;;3.47;2.38;;;40.90;37.90;;;;;;5075847;28;20208;-61
2022/06/17 07:29:52;;;;;;;3.88;1.48;;;41.40;37.30;;;;;;5075742;28;20768;-60
2022/06/17 07:32:20;;;;;;;2.70;2.03;;;41.90;35.80;;;;;;5075789;28;20303;-60
2022/06/17 07:34:47;;;;;;;4.03;1.73;;;42.50;36.10;;;;;;5076448;28;20204;-60
2022/06/17 07:39:58;;;;;;;4.97;1.60;;;42.90;34.90;;;;;;5076843;28;20250;-61
2022/06/17 07:42:37;;;;;;;1.80;1.50;;;42.90;34.90;;;;;;5077507;28;20672;-64
2022/06/17 07:45:05;;;;;;;3.38;1.80;;;42.70;34.60;;;;;;5079653;28;20204;-65
2022/06/17 07:47:33;;;;;;;3.80;1.77;;;42.50;35.50;;;;;;5078631;28;20487;-64
2022/06/17 07:50:00;;;;;;;4.43;1.65;;;42.30;35.30;;;;;;5080439;28;20210;-65
2022/06/17 07:52:27;;;;;;;2.78;1.75;;;42.30;34.40;;;;;;5079246;28;20660;-65
2022/06/17 07:54:53;;;;;;;2.58;1.80;;;42.20;35.20;;;;;;5077542;28;20208;-64
2022/06/17 07:57:20;;;;;;;3.28;1.45;;;42.30;34.70;;;;;;5075459;28;20211;-63
2022/06/17 07:59:47;;;;;;;5.53;2.00;;;41.60;35.20;;;;;;5075287;28;20228;-62
2022/06/17 08:02:14;;;;;;;6.18;1.90;;;38.80;37.90;;;;;;5074740;28;20247;-62
2022/06/17 08:04:42;;;;;;;4.63;1.90;;;37.80;39.20;;;;;;5074273;28;20662;-63
2022/06/17 08:07:11;;;;;;;2.30;1.73;;;38.20;38.90;;;;;;5074845;28;20572;-62
2022/06/17 08:09:37;;;;;;;4.85;1.90;;;39.10;38.20;;;;;;5074922;28;20613;-62
2022/06/17 08:12:08;;;;;;;6.75;2.17;;;39.70;38.00;;;;;;5074383;28;20229;-62
2022/06/17 08:14:35;;;;;;;2.70;2.00;;;40.30;37.20;;;;;;5074749;28;20728;-63
2022/06/17 08:17:02;;;;;;;4.63;2.10;;;40.10;37.50;;;;;;5074329;28;20216;-62
2022/06/17 08:19:29;;;;;;;3.65;1.83;;;40.30;37.20;;;;;;5075382;28;20220;-63
2022/06/17 08:21:58;;;;;;;5.07;1.80;;;40.50;36.70;;;;;;5075015;28;20315;-63
2022/06/17 08:24:25;;;;;;;3.67;2.08;;;40.50;36.80;;;;;;5074695;28;20223;-64
2022/06/17 08:26:51;;;;;;;5.13;1.80;;;40.80;36.70;;;;;;5074368;28;20205;-63
2022/06/17 08:29:19;;;;;;;3.15;1.85;;;40.60;36.20;;;;;;5074842;28;20200;-63
2022/06/17 08:31:46;;;;;;;3.90;1.80;;;39.10;37.90;;;;;;5075303;28;20322;-63
2022/06/17 08:34:13;;;;;;;4.38;1.90;;;38.30;39.00;;;;;;5074941;28;20208;-62
2022/06/17 08:36:41;;;;;;;6.20;2.10;;;38.30;39.10;;;;;;5074710;28;20208;-62
2022/06/17 08:39:12;;;;;;;4.15;2.08;;;36.90;40.80;;;;;;5075178;28;20217;-64
2022/06/17 08:41:49;;;;;;;4.45;2.03;;;36.10;41.80;;;;;;5074299;28;20261;-63
2022/06/17 08:44:37;;;;;;;3.90;1.80;;;36.00;41.30;;;;;;5075064;28;20189;-63
2022/06/17 08:47:29;;;;;;;4.70;2.03;;;37.20;40.10;;;;;;5074818;28;20204;-63
2022/06/17 08:50:12;;;;;;;3.38;1.77;;;38.40;38.80;;;;;;5074749;28;20205;-62
2022/06/17 08:52:58;;;;;;;2.60;1.80;;;38.30;39.10;;;;;;5075119;28;20211;-62
2022/06/17 08:55:36;;;;;;;3.28;1.83;;;37.60;39.40;;;;;;5074908;28;20211;-60
2022/06/17 08:58:15;;;;;;;6.32;2.13;;;36.00;41.40;;;;;;5073798;28;20673;-60
2022/06/17 09:00:51;;;;;;;4.78;1.80;;;34.50;43.80;;;;;;5073869;28;20232;-59
2022/06/17 09:03:36;;;;;;;4.55;1.80;;;33.50;44.60;;;;;;5074506;28;20205;-62
2022/06/17 09:06:15;;;;;;;2.97;1.88;;;32.60;44.30;;;;;;5075025;28;20232;-64
2022/06/17 09:09:08;;;;;;;2.00;1.40;;;30.90;46.70;;;;;;5075757;28;20213;-63
2022/06/17 09:11:43;;;;;;;3.00;1.55;;;29.90;46.70;;;;;;5073441;28;20728;-61
2022/06/17 09:14:27;;;;;;;4.30;1.80;;;28.90;48.70;;;;;;5073432;28;20208;-61
2022/06/17 09:17:03;;;;;;;2.97;1.80;;;28.40;51.10;;;;;;5072691;28;20211;-64
2022/06/17 09:19:32;;;;;;;3.70;1.63;;;28.00;52.20;;;;;;5073020;28;20231;-63
2022/06/17 09:22:05;;;;;;;2.17;1.23;;;27.80;52.00;;;;;;5072272;28;20240;-63
2022/06/17 09:24:38;;;;;;;3.67;1.38;;;27.50;51.30;;;;;;5072623;28;20178;-61
2022/06/17 09:27:11;;;;;;;3.80;1.60;;;27.20;51.10;;;;;;5072162;28;20205;-61
2022/06/17 09:29:41;;;;;;;3.60;1.63;;;27.00;51.90;;;;;;5072634;28;20205;-60
2022/06/17 09:32:16;;;;;;;2.55;1.50;;;26.80;52.00;;;;;;5071728;28;20291;-60
2022/06/17 09:34:49;;;;;;;2.13;1.55;;;26.70;51.50;;;;;;5072171;28;20208;-63
2022/06/17 09:37:21;;;;;;;2.10;1.58;;;26.70;51.40;;;;;;5071932;28;20205;-62
2022/06/17 09:39:52;;;;;;;4.95;1.65;;;26.80;52.00;;;;;;5071909;28;20220;-63
2022/06/17 09:42:25;;;;;;;2.83;1.40;;;26.90;52.60;;;;;;5074369;28;20196;-61
2022/06/17 09:44:55;;;;;;;5.32;1.60;;;27.00;52.40;;;;;;5073326;28;20224;-63
2022/06/17 09:47:29;;;;;;;4.53;1.40;;;27.20;52.50;;;;;;5072053;28;20205;-61
2022/06/17 09:50:00;;;;;;;3.33;1.58;;;27.40;52.50;;;;;;5072024;28;20236;-62
2022/06/17 09:52:32;;;;;;;3.58;1.83;;;27.40;52.50;;;;;;5072170;28;20216;-64
2022/06/17 09:55:07;;;;;;;3.92;1.55;;;27.30;53.40;;;;;;5072072;28;20583;-62
2022/06/17 09:57:42;;;;;;;3.58;1.40;;;27.30;53.20;;;;;;5071386;28;20215;-61
2022/06/17 10:00:12;;;;;;;2.17;1.25;;;27.20;52.90;;;;;;5072029;28;20243;-62
2022/06/17 10:02:50;;;;;;;1.85;1.42;;;27.20;52.70;;;;;;5071596;28;20209;-64
2022/06/17 10:05:29;;;;;;;2.05;1.42;;;27.10;53.00;;;;;;5071756;28;20209;-63
2022/06/17 10:08:03;;;;;;;2.20;1.13;;;27.00;53.40;;;;;;5071373;28;20693;-63
2022/06/17 10:10:39;;;;;;;2.22;1.38;;;26.80;50.80;;;;;;5071696;28;20735;-64
2022/06/17 10:13:20;;;;;;;2.30;1.65;;;26.90;49.70;;;;;;5072187;28;20241;-63
2022/06/17 10:18:53;;;;;;;3.70;1.38;;;27.10;52.30;;;;;;5071885;28;20212;-60
2022/06/17 10:21:35;;;;;;;2.17;1.23;;;27.10;51.20;;;;;;5071088;28;20275;-59
2022/06/17 10:24:16;;;;;;;1.92;1.25;;;27.10;50.70;;;;;;5071297;28;20217;-60
2022/06/17 10:26:57;;;;;;;2.55;1.10;;;27.40;49.80;;;;;;5070952;28;20694;-62
2022/06/17 10:29:42;;;;;;;1.90;1.40;;;27.70;49.90;;;;;;5071953;28;20201;-62
2022/06/17 10:32:09;;;;;;;4.72;3.45;;;27.90;49.40;;;;;;5071956;28;20221;-63
2022/06/17 10:34:43;;;;;;;3.17;1.30;;;28.00;49.10;;;;;;5072571;28;20666;-61
2022/06/17 10:37:10;;;;;;;1.38;1.10;;;27.90;48.10;;;;;;5071664;28;20520;-62
2022/06/17 10:39:39;;;;;;;2.47;1.00;;;27.90;46.50;;;;;;5071783;28;20204;-62
2022/06/17 10:42:08;;;;;;;1.70;1.42;;;27.80;46.60;;;;;;5070944;28;20608;-63
2022/06/17 10:44:37;;;;;;;3.97;1.30;;;27.80;47.80;;;;;;5071073;28;20677;-64
2022/06/17 10:47:20;;;;;;;2.83;1.20;;;28.00;48.50;;;;;;5073463;28;20209;-64
2022/06/17 10:49:53;;;;;;;1.85;1.15;;;28.10;49.40;;;;;;5076968;28;20212;-64
2022/06/17 10:52:22;;;;;;;1.98;1.20;;;28.10;48.10;;;;;;5076966;28;20204;-60
2022/06/17 10:54:52;;;;;;;2.20;0.88;;;28.10;48.00;;;;;;5076564;28;20212;-59
2022/06/17 10:57:25;;;;;;;1.75;1.00;;;28.20;46.90;;;;;;5074632;28;20193;-60
2022/06/17 10:59:54;;;;;;;3.17;1.20;;;28.20;47.40;;;;;;5075047;28;20211;-59
2022/06/17 11:02:27;;;;;;;3.80;1.25;;;28.20;47.90;;;;;;5075474;28;20209;-59
2022/06/17 11:04:56;;;;;;;4.28;2.30;;;28.10;48.60;;;;;;5075792;28;20232;-60
2022/06/17 11:07:28;;;;;;;2.95;1.45;;;28.20;49.00;;;;;;5075281;28;20594;-60
2022/06/17 11:09:57;;;;;;;3.10;1.50;;;28.30;48.70;;;;;;5074965;28;20550;-60
2022/06/17 11:12:28;;;;;;;2.45;1.13;;;28.40;48.40;;;;;;5075367;28;20208;-63
2022/06/17 11:15:03;;;;;;;1.92;1.30;;;28.40;48.80;;;;;;5075809;28;20208;-65
2022/06/17 11:17:35;;;;;;;1.90;1.25;;;28.40;50.10;;;;;;5075572;28;20220;-63
2022/06/17 11:20:06;;;;;;;4.22;2.03;;;28.40;50.20;;;;;;5074312;28;20270;-61
2022/06/17 11:22:36;;;;;;;2.45;1.90;;;28.50;50.10;;;;;;5074637;28;20205;-60
2022/06/17 11:25:08;;;;;;;2.40;1.50;;;28.60;48.90;;;;;;5074488;28;20747;-63
2022/06/17 11:27:41;;;;;;;2.67;1.15;;;28.80;48.10;;;;;;5074682;28;20204;-62
2022/06/17 11:30:27;;;;;;;2.65;1.40;;;29.00;48.20;;;;;;5074360;28;20692;-61
2022/06/17 11:32:54;;;;;;;1.40;1.30;;;29.20;47.90;;;;;;5073973;28;20216;-60
2022/06/17 11:35:27;;;;;;;4.43;1.38;;;29.10;47.90;;;;;;5074048;28;20588;-60
2022/06/17 11:37:56;;;;;;;1.58;1.20;;;29.10;48.30;;;;;;5075254;28;20212;-60
2022/06/17 11:40:25;;;;;;;2.85;1.58;;;29.10;47.80;;;;;;5074447;28;20587;-64
2022/06/17 11:42:54;;;;;;;2.08;1.38;;;29.10;47.60;;;;;;5074450;28;20230;-62
2022/06/17 11:45:26;;;;;;;1.10;1.00;;;29.10;48.20;;;;;;5074554;28;20208;-58
2022/06/17 11:47:59;;;;;;;2.58;1.20;;;29.30;47.20;;;;;;5073983;28;20205;-60
2022/06/17 11:50:30;;;;;;;1.83;1.17;;;29.40;47.30;;;;;;5068419;28;20240;-67
2022/06/17 11:53:04;;;;;;;4.38;1.40;;;29.50;47.50;;;;;;5074804;28;20201;-59
2022/06/17 11:55:33;;;;;;;2.47;1.17;;;29.70;46.70;;;;;;5074438;28;20271;-60
2022/06/17 11:58:00;;;;;;;1.90;1.33;;;29.70;47.60;;;;;;5073786;28;20205;-59
2022/06/17 12:00:45;;;;;;;1.92;1.25;;;29.90;46.50;;;;;;5074077;28;20236;-59
2022/06/17 12:03:13;;;;;;;2.75;1.17;;;30.00;45.40;;;;;;5074349;28;20209;-60
2022/06/17 12:05:40;;;;;;;2.30;1.10;;;30.00;45.00;;;;;;5075374;28;20200;-60
2022/06/17 12:08:15;;;;;;;1.63;1.33;;;30.00;45.10;;;;;;5075577;28;20205;-60
2022/06/17 12:10:47;;;;;;;1.38;1.17;;;30.00;45.80;;;;;;5074141;28;20727;-61
2022/06/17 12:13:23;;;;;;;2.70;1.02;;;30.20;45.00;;;;;;5075531;28;20258;-60
2022/06/17 12:15:55;;;;;;;3.97;1.30;;;30.20;45.20;;;;;;5075471;28;20233;-60
2022/06/17 12:18:25;;;;;;;1.95;1.27;;;30.30;43.90;;;;;;5075368;28;20205;-60
2022/06/17 12:21:18;;;;;;;4.35;1.20;;;30.30;44.10;;;;;;5074614;28;20334;-60
2022/06/17 12:23:49;;;;;;;1.83;1.15;;;30.50;44.80;;;;;;5069162;28;20204;-60
2022/06/17 12:26:19;;;;;;;1.70;1.20;;;30.70;44.30;;;;;;5074913;28;20545;-60
2022/06/17 12:28:56;;;;;;;1.17;0.95;;;30.70;43.40;;;;;;5074881;28;20208;-60
2022/06/17 12:31:32;;;;;;;3.03;1.20;;;30.70;43.30;;;;;;5074106;28;20626;-60
2022/06/17 12:34:08;;;;;;;3.25;0.85;;;30.50;43.90;;;;;;5074614;28;20212;-61
2022/06/17 12:36:40;;;;;;;1.83;0.95;;;30.30;43.80;;;;;;5073772;28;20209;-60
2022/06/17 12:39:14;;;;;;;2.20;1.15;;;30.20;43.40;;;;;;5073825;28;20209;-61
2022/06/17 12:41:50;;;;;;;2.42;1.00;;;30.20;44.00;;;;;;5073778;28;20235;-61
2022/06/17 12:44:29;;;;;;;2.42;0.85;;;30.00;43.60;;;;;;5074467;28;20740;-60
2022/06/17 12:47:05;;;;;;;2.03;1.00;;;29.80;43.60;;;;;;5073330;28;20226;-60
2022/06/17 12:55:38;;;;;;;3.20;1.00;;;29.80;43.00;;;;;;5073460;28;20200;-60
2022/06/17 12:58:12;;;;;;;2.15;1.40;;;30.00;43.20;;;;;;5073265;28;20227;-61
2022/06/17 13:00:43;;;;;;;1.45;1.00;;;30.30;42.80;;;;;;5072623;28;20231;-60
2022/06/17 13:03:32;;;;;;;2.55;1.25;;;30.30;42.10;;;;;;5072782;28;20581;-60
2022/06/17 13:06:08;;;;;;;0.77;0.77;;;30.30;41.80;;;;;;5072814;28;20217;-60
2022/06/17 13:08:44;;;;;;;0.63;0.63;;;30.30;41.80;;;;;;5072919;28;20209;-60
2022/06/17 13:11:18;;;;;;;3.80;0.95;;;30.30;41.30;;;;;;5071524;28;20228;-60
2022/06/17 13:14:02;;;;;;;2.60;1.10;;;30.60;41.30;;;;;;5072750;28;20261;-59
2022/06/17 13:16:34;;;;;;;2.22;0.90;;;30.70;42.60;;;;;;5072517;28;20539;-59
2022/06/17 13:19:11;;;;;;;1.73;1.20;;;30.70;43.10;;;;;;5072916;28;20557;-60